createdAt,value
2019-05-21T00:01:03.667Z,99126.29
2019-05-21T00:04:09.318Z,99121.69
2019-05-21T00:07:15.238Z,99117.32
2019-05-21T00:10:21.093Z,99115.38
2019-05-21T00:13:26.776Z,99111.50
2019-05-21T00:16:32.501Z,99114.86
2019-05-21T00:19:38.192Z,99118.27
2019-05-21T00:22:43.917Z,99112.77
2019-05-21T00:25:50.840Z,99109.36
2019-05-21T00:29:31.849Z,99116.95
2019-05-21T00:33:13.234Z,99117.02
2019-05-21T00:36:57.907Z,99106.60
2019-05-21T00:40:39.846Z,99123.50
2019-05-21T00:43:51.414Z,99131.43
2019-05-21T00:46:57.230Z,99118.99
2019-05-21T00:50:02.930Z,99114.49
2019-05-21T00:53:08.696Z,99113.31
2019-05-21T00:56:14.379Z,99095.18
2019-05-21T00:59:20.114Z,99107.83
2019-05-21T01:02:25.828Z,99110.23
2019-05-21T01:05:31.566Z,99109.09
2019-05-21T01:08:37.283Z,99115.44
2019-05-21T01:11:43.095Z,99110.14
2019-05-21T01:14:48.762Z,99106.41
2019-05-21T01:17:54.482Z,99109.95
2019-05-21T01:21:00.151Z,99118.52
2019-05-21T01:24:06.195Z,99119.60
2019-05-21T01:27:11.868Z,99115.76
2019-05-21T01:30:17.746Z,99126.09
2019-05-21T01:33:23.462Z,99132.09
2019-05-21T01:36:29.319Z,99139.09
2019-05-21T01:39:35.042Z,99133.06
2019-05-21T01:42:40.757Z,99141.92
2019-05-21T01:45:47.423Z,99145.44
2019-05-21T01:48:53.089Z,99151.95
2019-05-21T01:51:58.796Z,99144.48
2019-05-21T01:55:04.640Z,99142.34
2019-05-21T01:58:10.398Z,99153.82
2019-05-21T02:01:16.088Z,99159.14
2019-05-21T02:04:21.826Z,99161.34
2019-05-21T02:07:27.487Z,99159.30
2019-05-21T02:10:34.294Z,99156.58
2019-05-21T02:13:40.009Z,99151.70
2019-05-21T02:16:45.707Z,99156.56
2019-05-21T02:19:51.494Z,99157.68
2019-05-21T02:22:57.624Z,99157.41
2019-05-21T02:26:03.388Z,99153.14
2019-05-21T02:29:09.071Z,99157.09
2019-05-21T02:32:14.764Z,99148.98
2019-05-21T02:35:20.447Z,99151.89
2019-05-21T02:38:26.146Z,99159.52
2019-05-21T02:41:32.009Z,99170.40
2019-05-21T02:44:37.750Z,99180.39
2019-05-21T02:47:43.431Z,99180.28
2019-05-21T02:50:49.281Z,99173.19
2019-05-21T02:53:54.946Z,99174.31
2019-05-21T02:57:00.777Z,99181.16
2019-05-21T03:00:08.893Z,99186.94
2019-05-21T03:03:15.460Z,99180.34
2019-05-21T03:06:21.140Z,99177.06
2019-05-21T03:09:26.854Z,99188.05
2019-05-21T03:12:32.641Z,99187.84
2019-05-21T03:15:38.385Z,99187.81
2019-05-21T03:18:44.302Z,99186.63
2019-05-21T03:21:49.963Z,99187.83
2019-05-21T03:24:55.673Z,99188.75
2019-05-21T03:28:01.426Z,99190.36
2019-05-21T03:31:07.294Z,99183.52
2019-05-21T03:34:13.055Z,99189.69
2019-05-21T03:37:18.844Z,99198.56
2019-05-21T03:40:24.652Z,99215.48
2019-05-21T03:43:30.386Z,99203.77
2019-05-21T03:46:36.260Z,99207.03
2019-05-21T03:49:42.987Z,99213.01
2019-05-21T03:52:48.872Z,99210.88
2019-05-21T03:55:54.762Z,99203.30
2019-05-21T03:59:00.478Z,99201.34
2019-05-21T04:02:07.139Z,99202.20
2019-05-21T04:05:12.877Z,99218.31
2019-05-21T04:08:18.503Z,99220.70
2019-05-21T04:11:24.222Z,99217.98
2019-05-21T04:14:33.954Z,99222.64
2019-05-21T04:17:49.335Z,99219.01
2019-05-21T04:20:55.020Z,99220.23
2019-05-21T04:24:00.782Z,99228.84
2019-05-21T04:27:06.652Z,99227.86
2019-05-21T04:30:12.449Z,99224.48
2019-05-21T04:33:18.118Z,99224.98
2019-05-21T04:36:23.825Z,99225.45
2019-05-21T04:39:29.606Z,99223.67
2019-05-21T04:42:35.320Z,99223.81
2019-05-21T04:45:41.069Z,99222.33
2019-05-21T04:48:46.720Z,99230.87
2019-05-21T04:51:52.395Z,99228.38
2019-05-21T04:54:58.037Z,99238.29
2019-05-21T04:58:03.767Z,99242.34
2019-05-21T05:01:09.441Z,99242.78
2019-05-21T05:04:20.977Z,99239.16
2019-05-21T05:07:28.115Z,99242.64
2019-05-21T05:10:29.943Z,99241.92
2019-05-21T05:13:35.656Z,99241.38
2019-05-21T05:16:41.314Z,99237.30
2019-05-21T05:19:47.081Z,99234.89
2019-05-21T05:22:52.752Z,99237.72
2019-05-21T05:25:58.471Z,99242.52
2019-05-21T05:29:04.256Z,99239.87
2019-05-21T05:32:09.977Z,99242.72
2019-05-21T05:35:15.936Z,99242.65
2019-05-21T05:38:21.651Z,99243.95
2019-05-21T05:41:37.865Z,99243.66
2019-05-21T05:44:43.534Z,99249.52
2019-05-21T05:47:52.108Z,99257.02
2019-05-21T05:51:01.954Z,99254.72
2019-05-21T05:54:07.945Z,99254.34
2019-05-21T05:57:16.412Z,99251.97
2019-05-21T06:00:22.641Z,99259.20
2019-05-21T06:03:28.346Z,99255.71
2019-05-21T06:06:34.129Z,99257.09
2019-05-21T06:09:39.914Z,99249.44
2019-05-21T06:12:50.172Z,99248.78
2019-05-21T06:15:57.555Z,99237.27
2019-05-21T06:19:03.342Z,99231.85
2019-05-21T06:22:11.701Z,99231.40
2019-05-21T06:25:22.932Z,99235.14
2019-05-21T06:28:28.811Z,99238.88
2019-05-21T06:31:35.504Z,99240.33
2019-05-21T06:34:41.205Z,99244.83
2019-05-21T06:37:46.870Z,99242.22
2019-05-21T06:40:52.543Z,99238.27
2019-05-21T06:43:58.345Z,99237.58
2019-05-21T06:47:06.712Z,99245.76
2019-05-21T06:50:12.550Z,99247.41
2019-05-21T06:53:18.206Z,99255.05
2019-05-21T06:56:26.578Z,99249.30
2019-05-21T06:59:32.231Z,99249.09
2019-05-21T07:02:37.970Z,99244.34
2019-05-21T07:05:57.495Z,99246.34
2019-05-21T07:08:51.139Z,99236.11
2019-05-21T07:11:56.849Z,99236.91
2019-05-21T07:15:02.603Z,99235.19
2019-05-21T07:18:08.368Z,99227.25
2019-05-21T07:21:14.263Z,99221.51
2019-05-21T07:24:20.065Z,99217.94
2019-05-21T07:27:25.801Z,99225.57
2019-05-21T07:30:31.707Z,99219.86
2019-05-21T07:33:37.590Z,99224.95
2019-05-21T07:36:43.388Z,99222.58
2019-05-21T07:39:52.836Z,99223.96
2019-05-21T07:42:58.579Z,99222.09
2019-05-21T07:46:04.278Z,99218.80
2019-05-21T07:49:10.006Z,99217.99
2019-05-21T07:52:15.681Z,99216.70
2019-05-21T07:55:21.421Z,99221.20
2019-05-21T07:58:33.194Z,99219.69
2019-05-21T08:01:38.924Z,99207.58
2019-05-21T08:04:44.605Z,99204.91
2019-05-21T08:07:50.331Z,99205.69
2019-05-21T08:10:56.059Z,99201.41
2019-05-21T08:14:01.796Z,99194.66
2019-05-21T08:17:07.729Z,99196.31
2019-05-21T08:20:14.230Z,99190.67
2019-05-21T08:23:19.974Z,99189.88
2019-05-21T08:26:25.655Z,99190.95
2019-05-21T08:29:31.668Z,99187.73
2019-05-21T08:32:38.653Z,99189.58
2019-05-21T08:35:45.533Z,99182.22
2019-05-21T08:38:51.238Z,99186.87
2019-05-21T08:41:56.976Z,99184.70
2019-05-21T08:45:03.806Z,99182.06
2019-05-21T08:48:09.892Z,99175.10
2019-05-21T08:51:15.821Z,99179.39
2019-05-21T08:54:40.348Z,99171.07
2019-05-21T08:58:05.085Z,99175.39
2019-05-21T09:00:53.621Z,99173.77
2019-05-21T09:04:01.881Z,99171.63
2019-05-21T09:07:07.647Z,99170.52
2019-05-21T09:10:16.233Z,99165.97
2019-05-21T09:13:22.002Z,99164.09
2019-05-21T09:16:27.803Z,99164.07
2019-05-21T09:19:36.379Z,99160.35
2019-05-21T09:22:41.051Z,99154.98
2019-05-21T09:25:49.579Z,99164.31
2019-05-21T09:28:54.307Z,99154.41
2019-05-21T09:31:59.960Z,99155.73
2019-05-21T09:35:06.499Z,99153.33
2019-05-21T09:38:12.256Z,99155.54
2019-05-21T09:41:18.092Z,99157.39
2019-05-21T09:44:23.981Z,99152.80
2019-05-21T09:47:29.928Z,99146.09
2019-05-21T09:50:35.685Z,99152.25
2019-05-21T09:53:41.408Z,99145.72
2019-05-21T09:56:47.180Z,99137.67
2019-05-21T09:59:59.694Z,99129.92
2019-05-21T10:03:07.944Z,99131.27
2019-05-21T10:06:13.644Z,99134.23
2019-05-21T10:09:20.425Z,99133.92
2019-05-21T10:12:26.219Z,99131.00
2019-05-21T10:15:33.171Z,99121.88
2019-05-21T10:18:38.960Z,99113.95
2019-05-21T10:21:44.733Z,99115.44
2019-05-21T10:24:50.412Z,99122.39
2019-05-21T10:27:56.070Z,99108.55
2019-05-21T10:31:01.808Z,99117.08
2019-05-21T10:34:07.519Z,99129.94
2019-05-21T10:37:13.290Z,99125.55
2019-05-21T10:40:19.351Z,99123.91
2019-05-21T10:43:25.111Z,99113.45
2019-05-21T10:46:31.183Z,99105.05
2019-05-21T10:49:36.932Z,99099.42
2019-05-21T10:52:42.646Z,99091.54
2019-05-21T10:55:48.428Z,99090.56
2019-05-21T10:58:54.204Z,99082.20
2019-05-21T11:02:24.727Z,99073.21
2019-05-21T11:05:34.449Z,99079.29
2019-05-21T11:08:40.414Z,99075.18
2019-05-21T11:11:48.618Z,99072.79
2019-05-21T11:14:54.458Z,99069.84
2019-05-21T11:18:10.342Z,99071.98
2019-05-21T11:21:08.379Z,99067.56
2019-05-21T11:24:15.085Z,99061.34
2019-05-21T11:27:20.883Z,99057.72
2019-05-21T11:30:26.641Z,99054.46
2019-05-21T11:33:32.339Z,99051.51
2019-05-21T11:36:38.145Z,99051.38
2019-05-21T11:39:47.611Z,99058.47
2019-05-21T11:42:53.505Z,99049.44
2019-05-21T11:46:03.019Z,99049.31
2019-05-21T11:49:12.444Z,99053.60
2019-05-21T11:52:18.663Z,99056.91
2019-05-21T11:55:24.469Z,99051.67
2019-05-21T11:58:41.070Z,99036.33
2019-05-21T12:01:46.946Z,99038.63
2019-05-21T12:04:52.690Z,99035.05
2019-05-21T12:07:58.506Z,99037.68
2019-05-21T12:11:05.455Z,99032.34
2019-05-21T12:14:11.112Z,99031.57
2019-05-21T12:17:17.020Z,99036.98
2019-05-21T12:20:36.153Z,99028.89
2019-05-21T12:23:30.379Z,99020.69
2019-05-21T12:26:37.262Z,99029.24
2019-05-21T12:29:43.003Z,99015.98
2019-05-21T12:32:48.661Z,99007.33
2019-05-21T12:35:54.425Z,99003.75
2019-05-21T12:39:13.669Z,99003.35
2019-05-21T12:42:07.791Z,98995.80
2019-05-21T12:45:13.885Z,99001.48
2019-05-21T12:48:24.005Z,98998.02
2019-05-21T12:51:29.876Z,98994.72
2019-05-21T12:54:39.360Z,98988.87
2019-05-21T12:57:45.031Z,98984.84
2019-05-21T13:00:50.990Z,98988.30
2019-05-21T13:03:56.695Z,98989.72
2019-05-21T13:07:02.480Z,98996.08
2019-05-21T13:10:09.257Z,98988.81
2019-05-21T13:13:22.841Z,98984.28
2019-05-21T13:16:28.517Z,98985.94
2019-05-21T13:19:34.177Z,98981.05
2019-05-21T13:22:39.914Z,98985.05
2019-05-21T13:25:45.801Z,98992.69
2019-05-21T13:28:51.549Z,98990.99
2019-05-21T13:31:57.225Z,98993.33
2019-05-21T13:35:03.413Z,98989.28
2019-05-21T13:38:13.549Z,98984.82
2019-05-21T13:41:17.967Z,98987.52
2019-05-21T13:44:23.671Z,98993.23
2019-05-21T13:47:29.445Z,98983.54
2019-05-21T13:50:35.105Z,98980.56
2019-05-21T13:53:40.774Z,98985.58
2019-05-21T13:56:46.435Z,98988.27
2019-05-21T13:59:52.155Z,98981.79
2019-05-21T14:02:57.876Z,98983.07
2019-05-21T14:06:03.698Z,98974.76
2019-05-21T14:09:10.087Z,98973.30
2019-05-21T14:12:16.489Z,98972.80
2019-05-21T14:15:22.419Z,98972.56
2019-05-21T14:18:28.076Z,98979.45
2019-05-21T14:21:34.180Z,98977.79
2019-05-21T14:24:39.859Z,98977.37
2019-05-21T14:27:45.969Z,98979.91
2019-05-21T14:30:51.588Z,98974.53
2019-05-21T14:33:57.393Z,98975.79
2019-05-21T14:37:04.492Z,98976.12
2019-05-21T14:40:12.126Z,98972.49
2019-05-21T14:43:18.229Z,98977.03
2019-05-21T14:46:24.060Z,98975.18
2019-05-21T14:49:29.896Z,98980.27
2019-05-21T14:52:35.578Z,98973.30
2019-05-21T14:55:41.450Z,98968.45
2019-05-21T14:58:47.130Z,98962.16
2019-05-21T15:01:58.195Z,98968.41
2019-05-21T15:05:04.955Z,98963.27
2019-05-21T15:08:10.749Z,98968.76
2019-05-21T15:11:16.641Z,98962.13
2019-05-21T15:14:22.504Z,98957.40
2019-05-21T15:17:28.237Z,98962.97
2019-05-21T15:20:48.275Z,98958.20
2019-05-21T15:23:53.973Z,98959.52
2019-05-21T15:26:59.722Z,98960.80
2019-05-21T15:30:05.930Z,98962.64
2019-05-21T15:33:11.744Z,98955.66
2019-05-21T15:36:17.447Z,98953.47
2019-05-21T15:39:23.115Z,98959.41
2019-05-21T15:42:28.998Z,98959.61
2019-05-21T15:45:34.933Z,98956.68
2019-05-21T15:48:40.664Z,98956.00
2019-05-21T15:51:46.489Z,98961.85
2019-05-21T15:54:52.206Z,98961.41
2019-05-21T15:57:57.929Z,98966.63
2019-05-21T16:01:04.831Z,98971.32
2019-05-21T16:04:10.496Z,98978.80
2019-05-21T16:07:16.267Z,98977.42
2019-05-21T16:10:22.070Z,98981.51
2019-05-21T16:13:27.851Z,98982.52
2019-05-21T16:16:33.535Z,98987.28
2019-05-21T16:19:39.374Z,98986.44
2019-05-21T16:22:45.063Z,98991.98
2019-05-21T16:25:50.835Z,98993.58
2019-05-21T16:28:56.569Z,98998.67
2019-05-21T16:32:02.389Z,98994.90
2019-05-21T16:35:11.643Z,98998.95
2019-05-21T16:38:17.486Z,98994.93
2019-05-21T16:41:24.782Z,99000.80
2019-05-21T16:44:30.809Z,99004.00
2019-05-21T16:47:45.920Z,99004.31
2019-05-21T16:50:44.195Z,99012.61
2019-05-21T16:53:49.951Z,99014.00
2019-05-21T16:56:57.842Z,99020.30
2019-05-21T17:00:03.310Z,99029.44
2019-05-21T17:03:10.238Z,99030.51
2019-05-21T17:06:15.967Z,99036.42
2019-05-21T17:09:21.656Z,99035.81
2019-05-21T17:12:27.420Z,99044.08
2019-05-21T17:15:33.368Z,99048.58
2019-05-21T17:18:39.051Z,99052.00
2019-05-21T17:21:45.294Z,99059.17
2019-05-21T17:24:52.066Z,99069.17
2019-05-21T17:27:57.753Z,99073.18
2019-05-21T17:31:03.540Z,99070.36
2019-05-21T17:34:10.357Z,99077.71
2019-05-21T17:37:16.429Z,99079.34
2019-05-21T17:40:22.221Z,99089.98
2019-05-21T17:43:28.082Z,99091.00
2019-05-21T17:46:36.833Z,99089.22
2019-05-21T17:49:43.902Z,99092.88
2019-05-21T17:52:49.788Z,99102.38
2019-05-21T17:55:59.108Z,99105.12
2019-05-21T17:59:04.892Z,99110.20
2019-05-21T18:02:13.814Z,99115.71
2019-05-21T18:05:20.953Z,99118.60
2019-05-21T18:08:26.731Z,99125.21
2019-05-21T18:11:33.738Z,99125.45
2019-05-21T18:14:39.679Z,99131.02
2019-05-21T18:17:46.130Z,99139.97
2019-05-21T18:20:54.788Z,99148.58
2019-05-21T18:24:00.678Z,99149.55
2019-05-21T18:27:06.537Z,99157.30
2019-05-21T18:30:12.996Z,99159.45
2019-05-21T18:33:18.880Z,99167.16
2019-05-21T18:36:24.921Z,99173.14
2019-05-21T18:39:33.790Z,99176.68
2019-05-21T18:42:39.288Z,99186.48
2019-05-21T18:45:45.026Z,99196.87
2019-05-21T18:48:52.251Z,99193.47
2019-05-21T18:51:57.997Z,99200.95
2019-05-21T18:55:03.751Z,99213.80
2019-05-21T18:58:11.084Z,99227.98
2019-05-21T19:01:17.235Z,99236.67
2019-05-21T19:04:22.991Z,99241.40
2019-05-21T19:07:28.735Z,99247.10
2019-05-21T19:10:35.711Z,99249.99
2019-05-21T19:13:41.753Z,99255.81
2019-05-21T19:16:47.515Z,99261.55
2019-05-21T19:19:53.459Z,99270.06
2019-05-21T19:23:17.953Z,99275.25
2019-05-21T19:26:36.821Z,99279.82
2019-05-21T19:29:45.243Z,99282.16
2019-05-21T19:33:31.730Z,99285.37
2019-05-21T19:36:56.006Z,99295.67
2019-05-21T19:44:38.465Z,99297.44
2019-05-21T19:55:58.665Z,99307.70
2019-05-21T19:59:43.542Z,99310.37
2019-05-21T20:11:48.542Z,99321.44
2019-05-21T20:15:23.277Z,99317.72
2019-05-21T20:20:25.107Z,99318.44
2019-05-21T20:27:57.422Z,99328.19
2019-05-21T20:31:17.278Z,99326.61
2019-05-21T20:35:21.808Z,99334.52
2019-05-21T20:46:41.391Z,99339.63
2019-05-21T20:50:06.171Z,99333.08
2019-05-21T20:53:11.919Z,99336.66
2019-05-21T20:56:27.320Z,99336.72
2019-05-21T20:59:33.343Z,99339.03
2019-05-21T21:02:44.036Z,99341.91
2019-05-21T21:05:50.043Z,99344.05
2019-05-21T21:08:57.571Z,99346.55
2019-05-21T21:12:06.345Z,99342.45
2019-05-21T21:15:13.037Z,99337.59
2019-05-21T21:18:19.795Z,99335.29
2019-05-21T21:21:26.764Z,99333.62
2019-05-21T21:24:33.319Z,99332.73
2019-05-21T21:27:39.226Z,99328.75
2019-05-21T21:30:45.434Z,99328.41
2019-05-21T21:33:51.336Z,99325.06
2019-05-21T21:40:11.925Z,99327.43
2019-05-21T21:43:19.113Z,99321.54
2019-05-21T21:46:24.854Z,99323.17
2019-05-21T21:49:31.579Z,99318.56
2019-05-21T21:52:40.690Z,99328.80
2019-05-21T21:55:46.582Z,99325.13
2019-05-21T21:58:52.367Z,99328.38
2019-05-21T22:02:03.794Z,99339.31
2019-05-21T22:05:10.910Z,99336.05
2019-05-21T22:08:17.199Z,99331.80
2019-05-21T22:11:23.914Z,99339.05
2019-05-21T22:14:30.312Z,99335.59
2019-05-21T22:17:36.397Z,99334.02
2019-05-21T22:20:42.426Z,99335.20
2019-05-21T22:23:50.868Z,99328.88
2019-05-21T22:26:56.996Z,99334.55
2019-05-21T22:30:03.198Z,99333.88
2019-05-21T22:33:12.361Z,99327.90
2019-05-21T22:36:18.598Z,99326.66
2019-05-21T22:39:26.598Z,99330.94
2019-05-21T22:42:33.017Z,99331.97
2019-05-21T22:45:38.771Z,99335.79
2019-05-21T22:48:45.271Z,99335.73
2019-05-21T22:51:51.363Z,99334.63
2019-05-21T22:54:57.033Z,99341.05
2019-05-21T22:58:02.725Z,99338.16
2019-05-21T23:01:12.105Z,99331.86
2019-05-21T23:04:18.611Z,99341.25
2019-05-21T23:07:29.121Z,99346.19
2019-05-21T23:10:34.874Z,99338.68
2019-05-21T23:13:40.721Z,99341.58
2019-05-21T23:16:49.685Z,99339.25
2019-05-21T23:20:07.459Z,99339.25
2019-05-21T23:23:15.550Z,99343.53
2019-05-21T23:26:21.748Z,99348.35
2019-05-21T23:29:30.988Z,99351.17
2019-05-21T23:32:37.813Z,99349.98
2019-05-21T23:35:43.933Z,99349.95
2019-05-21T23:38:52.223Z,99358.45
2019-05-21T23:41:58.011Z,99353.86
2019-05-21T23:45:05.431Z,99358.91
2019-05-21T23:48:12.610Z,99359.73
2019-05-21T23:51:18.344Z,99350.58
2019-05-21T23:54:24.266Z,99360.60
2019-05-21T23:57:30.815Z,99358.73
